Terminal Aerodrome Forecast
Issued by NWS

Home | Current Version | Previous Version | Text Only | Print | Product List | Glossary On
Versions: 1 2 3 4 5 6 7 8 9 10 11 12
267
FTUS45 KVEF 291126
TAFDAG
TAF
KDAG 291126Z 2912/3012 28010KT P6SM SCT250
     FM291900 VRB06KT P6SM FEW120 SCT250
     FM300100 24014KT P6SM SCT250
     FM300800 27010KT P6SM SCT250=

USA.gov is the U.S. government's official web portal to all federal, state and local government web resources and services.